This is the latest recevied weather packets stored in our database for station/object SP8C-10. If no packets are shown the sender has not sent any weather packets the latest 10 day(s).
| Time | Temp. | Humidity | Pressure | Rain* | Wind** | Luminosity | Snow |
|---|---|---|---|---|---|---|---|
| 1788250339 | 29.44° C | 42% | 1017.3 hPa | - | - | - | - |
| 1788248539 | 28.33° C | 43% | 1017.2 hPa | - | - | - | - |
| 1788246739 | 27.78° C | 45% | 1017 hPa | - | - | - | - |
| 1788244939 | 26.67° C | 44% | 1016.8 hPa | - | - | - | - |
| 1788243138 | 26.67° C | 41% | 1016.8 hPa | - | - | - | - |
| 1788241338 | 26.11° C | 41% | 1016.7 hPa | - | - | - | - |
| 1788239538 | 26.11° C | 40% | 1016.6 hPa | - | - | - | - |
| 1788237738 | 26.67° C | 40% | 1016.5 hPa | - | - | - | - |
| 1788235938 | 26.67° C | 39% | 1016.3 hPa | - | - | - | - |
| 1788214335 | 30° C | 36% | 1015.7 hPa | - | - | - | - |
| 1788207134 | 31.11° C | 34% | 1015.7 hPa | - | - | - | - |
| 1788205334 | 31.67° C | 35% | 1015.4 hPa | - | - | - | - |
| 1788203534 | 32.22° C | 34% | 1015.7 hPa | - | - | - | - |
| 1788201734 | 32.78° C | 35% | 1015.2 hPa | - | - | - | - |
| 1788199933 | 33.33° C | 35% | 1015.4 hPa | - | - | - | - |
| 1788196333 | 35° C | 31% | 1016.2 hPa | - | - | - | - |
| 1788194533 | 35.56° C | 31% | 1015.4 hPa | - | - | - | - |
| 1788192732 | 36.67° C | 30% | 1015.1 hPa | - | - | - | - |
| 1788189306 | 40° C | 26% | 1014.2 hPa | - | - | - | - |
| 1788187505 | 40.56° C | 24% | 1013.4 hPa | - | - | - | - |
| 1788185705 | 40.56° C | 26% | 1013.5 hPa | - | - | - | - |
| 1788182105 | 40° C | 26% | 1014.1 hPa | - | - | - | - |
| 1788180305 | 40° C | 26% | 1014.5 hPa | - | - | - | - |
| 1788178504 | 39.44° C | 27% | 1014.9 hPa | - | - | - | - |
| 1788176704 | 38.89° C | 28% | 1014.9 hPa | - | - | - | - |
* Rain since midnight (hover to see other rain measurements)
** Current wind speed in m/s (hover to see current wind gust speed)